Time;durP1;ratioP1;P1;durP2;ratioP2;P2;SDS_P1;SDS_P2;PMS_P1;PMS_P2;Temp;Humidity;BMP_temperature;BMP_pressure;BME280_temperature;BME280_humidity;BME280_pressure;Samples;Min_cycle;Max_cycle;Signal;HPM_P1;HPM_P2
2021/06/08 00:00:57;;;;;;;21.35;19.00;;;;;;;;;;2032208;29;20212;-64
2021/06/08 00:01:58;;;;;;;20.45;18.65;;;;;;;;;;2030088;29;20234;-64
2021/06/08 00:02:58;;;;;;;20.80;18.70;;;;;;;;;;2048981;28;20554;-64
2021/06/08 00:03:58;;;;;;;19.35;17.55;;;;;;;;;;2054902;28;20574;-64
2021/06/08 00:04:58;;;;;;;19.50;17.77;;;;;;;;;;2052620;28;20179;-62
2021/06/08 00:05:59;;;;;;;18.67;16.98;;;;;;;;;;2049200;28;20175;-64
2021/06/08 00:06:59;;;;;;;20.73;18.83;;;;;;;;;;2048921;28;20270;-64
2021/06/08 00:08:01;;;;;;;20.52;17.52;;;;;;;;;;2040964;29;20207;-64
2021/06/08 00:09:01;;;;;;;20.38;18.45;;;;;;;;;;2048551;28;20225;-64
2021/06/08 00:10:02;;;;;;;20.63;18.70;;;;;;;;;;2047711;28;20171;-65
2021/06/08 00:11:03;;;;;;;20.13;18.15;;;;;;;;;;2049005;28;20259;-65
2021/06/08 00:12:03;;;;;;;21.13;19.30;;;;;;;;;;2049445;28;20178;-64
2021/06/08 00:13:04;;;;;;;20.08;18.15;;;;;;;;;;2047721;29;20186;-64
2021/06/08 00:14:04;;;;;;;18.83;17.13;;;;;;;;;;2040165;29;20211;-62
2021/06/08 00:15:05;;;;;;;19.88;17.83;;;;;;;;;;2047357;28;20365;-64
2021/06/08 00:16:05;;;;;;;21.30;19.27;;;;;;;;;;2049097;28;20183;-63
2021/06/08 00:17:06;;;;;;;18.80;17.17;;;;;;;;;;2048984;28;20198;-65
2021/06/08 00:18:06;;;;;;;20.25;18.35;;;;;;;;;;2049128;29;20179;-64
2021/06/08 00:19:06;;;;;;;19.02;17.08;;;;;;;;;;2047693;28;20182;-65
2021/06/08 00:20:07;;;;;;;19.63;17.75;;;;;;;;;;2046888;29;20167;-65
2021/06/08 00:21:07;;;;;;;19.55;17.60;;;;;;;;;;2047354;28;20190;-63
2021/06/08 00:22:08;;;;;;;18.55;16.55;;;;;;;;;;2047824;29;20206;-64
2021/06/08 00:23:08;;;;;;;19.45;17.60;;;;;;;;;;2048175;29;20215;-65
2021/06/08 00:24:09;;;;;;;17.88;16.15;;;;;;;;;;2047674;28;20195;-64
2021/06/08 00:25:09;;;;;;;18.63;16.92;;;;;;;;;;2040425;29;20176;-61
2021/06/08 00:26:09;;;;;;;18.88;16.88;;;;;;;;;;2043757;29;20183;-64
2021/06/08 00:27:10;;;;;;;18.20;16.42;;;;;;;;;;2048689;28;20242;-65
2021/06/08 00:28:10;;;;;;;19.10;17.10;;;;;;;;;;2048699;28;20254;-64
2021/06/08 00:29:10;;;;;;;17.83;15.45;;;;;;;;;;2048216;28;20189;-65
2021/06/08 00:30:11;;;;;;;18.33;16.45;;;;;;;;;;2047658;29;20258;-64
2021/06/08 00:31:11;;;;;;;18.50;16.55;;;;;;;;;;2049284;29;20190;-64
2021/06/08 00:32:11;;;;;;;17.60;15.90;;;;;;;;;;2052803;28;20171;-66
2021/06/08 00:33:12;;;;;;;18.27;16.23;;;;;;;;;;2049122;29;20171;-64
2021/06/08 00:34:12;;;;;;;17.75;15.85;;;;;;;;;;2047302;29;20203;-65
2021/06/08 00:35:12;;;;;;;18.08;16.15;;;;;;;;;;2047410;29;20606;-62
2021/06/08 00:36:14;;;;;;;16.42;14.98;;;;;;;;;;2052914;28;20202;-64
2021/06/08 00:37:14;;;;;;;17.60;16.00;;;;;;;;;;2048789;28;20195;-65
2021/06/08 00:38:14;;;;;;;17.13;15.52;;;;;;;;;;2048322;28;20602;-64
2021/06/08 00:39:15;;;;;;;17.10;15.55;;;;;;;;;;2048807;29;20695;-58
2021/06/08 00:40:15;;;;;;;16.70;15.15;;;;;;;;;;2046072;28;20233;-64
2021/06/08 00:41:15;;;;;;;17.02;15.48;;;;;;;;;;2042655;28;20633;-64
2021/06/08 00:42:25;;;;;;;17.17;15.63;;;;;;;;;;2048004;28;20250;-65
2021/06/08 00:43:25;;;;;;;16.50;14.82;;;;;;;;;;2047420;28;20195;-63
2021/06/08 00:44:25;;;;;;;18.75;15.73;;;;;;;;;;2048930;29;20269;-65
2021/06/08 00:45:26;;;;;;;16.67;15.07;;;;;;;;;;2048567;28;20206;-64
2021/06/08 00:46:26;;;;;;;16.40;14.93;;;;;;;;;;2048459;28;20170;-65
2021/06/08 00:47:26;;;;;;;16.73;15.23;;;;;;;;;;2047784;29;20242;-64
2021/06/08 00:48:27;;;;;;;17.02;15.35;;;;;;;;;;2050351;28;20659;-65
2021/06/08 00:49:27;;;;;;;16.95;14.63;;;;;;;;;;2052247;28;20182;-65
2021/06/08 00:50:27;;;;;;;15.52;14.10;;;;;;;;;;2048024;28;20249;-64
2021/06/08 00:51:27;;;;;;;16.67;15.10;;;;;;;;;;2048390;29;20182;-64
2021/06/08 00:52:28;;;;;;;16.48;14.88;;;;;;;;;;2045407;28;20388;-65
2021/06/08 00:53:28;;;;;;;16.45;14.75;;;;;;;;;;2044987;29;20281;-64
2021/06/08 00:54:28;;;;;;;17.40;15.68;;;;;;;;;;2050397;28;20695;-64
2021/06/08 00:55:28;;;;;;;17.50;15.80;;;;;;;;;;2048757;28;20777;-64
2021/06/08 00:56:29;;;;;;;16.73;15.13;;;;;;;;;;2049236;28;20186;-65
2021/06/08 00:57:29;;;;;;;18.08;16.25;;;;;;;;;;2049517;29;20233;-63
2021/06/08 00:58:29;;;;;;;17.33;15.70;;;;;;;;;;2048365;28;20210;-64
2021/06/08 00:59:29;;;;;;;17.77;16.27;;;;;;;;;;2049161;29;20237;-66
2021/06/08 01:00:30;;;;;;;16.52;15.00;;;;;;;;;;2052089;28;20198;-65
2021/06/08 01:01:30;;;;;;;19.30;17.08;;;;;;;;;;2051605;28;20202;-64
2021/06/08 01:02:31;;;;;;;17.92;16.15;;;;;;;;;;2050016;28;20193;-65
2021/06/08 01:03:32;;;;;;;19.33;16.75;;;;;;;;;;2047614;29;20234;-64
2021/06/08 01:04:32;;;;;;;17.92;16.20;;;;;;;;;;2046848;28;20202;-65
2021/06/08 01:05:33;;;;;;;18.45;16.65;;;;;;;;;;2047314;29;20171;-64
2021/06/08 01:06:34;;;;;;;18.17;16.58;;;;;;;;;;2053369;28;20178;-64
2021/06/08 01:07:34;;;;;;;18.60;16.88;;;;;;;;;;2052412;28;20187;-65
2021/06/08 01:08:35;;;;;;;18.25;16.48;;;;;;;;;;2051016;28;20706;-64
2021/06/08 01:09:35;;;;;;;19.13;17.40;;;;;;;;;;2049792;28;20177;-64
2021/06/08 01:10:35;;;;;;;18.63;16.73;;;;;;;;;;2047368;28;20183;-65
2021/06/08 01:11:36;;;;;;;18.08;16.35;;;;;;;;;;2049738;28;20179;-64
2021/06/08 01:12:36;;;;;;;18.27;16.40;;;;;;;;;;2048293;28;20179;-64
2021/06/08 01:13:36;;;;;;;18.17;16.48;;;;;;;;;;2046837;28;20178;-64
2021/06/08 01:14:37;;;;;;;19.30;17.42;;;;;;;;;;2046097;28;20195;-59
2021/06/08 01:15:37;;;;;;;19.15;17.23;;;;;;;;;;2045560;28;20285;-64
2021/06/08 01:16:39;;;;;;;17.95;16.17;;;;;;;;;;2051380;28;20270;-65
2021/06/08 01:17:39;;;;;;;17.85;16.35;;;;;;;;;;2050214;28;20183;-65
2021/06/08 01:18:39;;;;;;;17.55;16.05;;;;;;;;;;2047945;29;20179;-65
2021/06/08 01:19:39;;;;;;;16.52;15.00;;;;;;;;;;2049627;28;20175;-64
2021/06/08 01:20:40;;;;;;;16.38;14.68;;;;;;;;;;2050180;28;20183;-65
2021/06/08 01:21:41;;;;;;;16.83;15.23;;;;;;;;;;2046192;28;20273;-64
2021/06/08 01:22:41;;;;;;;16.33;14.73;;;;;;;;;;2044245;28;20201;-64
2021/06/08 01:23:43;;;;;;;17.35;15.85;;;;;;;;;;2045764;28;20210;-65
2021/06/08 01:24:45;;;;;;;16.67;15.18;;;;;;;;;;2046705;28;20194;-65
2021/06/08 01:26:01;;;;;;;16.13;14.70;;;;;;;;;;2015484;29;20204;-65
2021/06/08 01:27:03;;;;;;;17.58;15.98;;;;;;;;;;2028933;29;20651;-64
2021/06/08 01:28:04;;;;;;;16.63;15.02;;;;;;;;;;2045695;29;20245;-65
2021/06/08 01:29:05;;;;;;;16.65;15.07;;;;;;;;;;2039867;29;20168;-64
2021/06/08 01:30:05;;;;;;;16.95;15.15;;;;;;;;;;2045751;29;20198;-65
2021/06/08 01:31:11;;;;;;;16.60;15.10;;;;;;;;;;2047104;29;20195;-63
2021/06/08 01:32:12;;;;;;;16.50;14.70;;;;;;;;;;2033475;29;20188;-65
2021/06/08 01:33:12;;;;;;;15.77;14.18;;;;;;;;;;2030873;29;20263;-64
2021/06/08 01:34:13;;;;;;;15.82;14.43;;;;;;;;;;2041008;29;20826;-65
2021/06/08 01:35:15;;;;;;;17.00;15.40;;;;;;;;;;2046895;29;20647;-65
2021/06/08 01:36:16;;;;;;;16.17;14.75;;;;;;;;;;2048141;28;20198;-64
2021/06/08 01:37:17;;;;;;;16.95;15.15;;;;;;;;;;2050382;28;20674;-63
2021/06/08 01:38:18;;;;;;;16.45;14.82;;;;;;;;;;2053880;28;20167;-65
2021/06/08 01:39:18;;;;;;;17.10;15.52;;;;;;;;;;2050830;28;20715;-64
2021/06/08 01:40:19;;;;;;;15.82;14.32;;;;;;;;;;2055268;28;20252;-65
2021/06/08 01:41:22;;;;;;;15.43;13.98;;;;;;;;;;2055091;28;20201;-65
2021/06/08 01:42:22;;;;;;;16.27;14.80;;;;;;;;;;2047421;29;20186;-64
2021/06/08 01:43:23;;;;;;;15.68;14.18;;;;;;;;;;2047455;28;20561;-65
2021/06/08 01:44:23;;;;;;;15.20;13.80;;;;;;;;;;2048441;28;20324;-63
2021/06/08 01:45:23;;;;;;;16.15;14.43;;;;;;;;;;2049332;28;20258;-64
2021/06/08 01:46:24;;;;;;;15.73;14.27;;;;;;;;;;2047453;29;20171;-65
2021/06/08 01:47:24;;;;;;;17.17;15.50;;;;;;;;;;2048686;28;20171;-65
2021/06/08 01:48:24;;;;;;;15.05;13.75;;;;;;;;;;2048448;29;20178;-65
2021/06/08 01:49:25;;;;;;;15.95;14.30;;;;;;;;;;2049781;28;20656;-64
2021/06/08 01:50:25;;;;;;;15.82;14.23;;;;;;;;;;2047580;29;20194;-65
2021/06/08 01:51:40;;;;;;;16.20;14.48;;;;;;;;;;2048398;28;20178;-65
2021/06/08 01:52:55;;;;;;;16.25;14.25;;;;;;;;;;2044560;28;20174;-64
2021/06/08 01:54:14;;;;;;;16.35;14.63;;;;;;;;;;2047562;28;20178;-64
2021/06/08 01:55:20;;;;;;;17.75;14.90;;;;;;;;;;2045602;28;20213;-65
2021/06/08 01:56:21;;;;;;;16.50;14.90;;;;;;;;;;2048325;28;20195;-66
2021/06/08 01:57:25;;;;;;;17.77;16.08;;;;;;;;;;2048371;28;20182;-65
2021/06/08 01:58:44;;;;;;;15.82;14.32;;;;;;;;;;2053294;28;20178;-66
2021/06/08 02:00:02;;;;;;;16.73;15.05;;;;;;;;;;2045016;29;20573;-66
2021/06/08 02:01:11;;;;;;;16.05;14.38;;;;;;;;;;2044318;28;20266;-65
2021/06/08 02:02:28;;;;;;;16.80;15.00;;;;;;;;;;2048395;29;20194;-66
2021/06/08 02:03:32;;;;;;;16.92;15.32;;;;;;;;;;2043503;29;20281;-58
2021/06/08 02:04:37;;;;;;;15.57;14.18;;;;;;;;;;2052856;28;20211;-66
2021/06/08 02:05:46;;;;;;;16.63;14.85;;;;;;;;;;2048957;28;20182;-65
2021/06/08 02:06:49;;;;;;;17.10;15.43;;;;;;;;;;2051190;28;20233;-65
2021/06/08 02:07:49;;;;;;;16.40;14.75;;;;;;;;;;2040737;29;20213;-65
2021/06/08 02:08:51;;;;;;;15.52;13.95;;;;;;;;;;2041932;29;20176;-66
2021/06/08 02:09:58;;;;;;;15.65;14.15;;;;;;;;;;2052273;28;20678;-65
2021/06/08 02:11:00;;;;;;;16.55;14.90;;;;;;;;;;2048631;28;20163;-65
2021/06/08 02:12:06;;;;;;;16.17;14.45;;;;;;;;;;2042207;29;20182;-63
2021/06/08 02:13:22;;;;;;;15.68;13.93;;;;;;;;;;2054927;28;20190;-65
2021/06/08 02:14:24;;;;;;;14.55;13.32;;;;;;;;;;2048516;28;20182;-64
2021/06/08 02:15:29;;;;;;;15.90;13.68;;;;;;;;;;2045385;28;20186;-62
2021/06/08 02:16:32;;;;;;;14.88;13.48;;;;;;;;;;2053608;28;20190;-65
2021/06/08 02:17:36;;;;;;;15.73;14.13;;;;;;;;;;2052039;28;20219;-65
2021/06/08 02:18:38;;;;;;;16.67;13.95;;;;;;;;;;2052004;28;20178;-64
2021/06/08 02:19:38;;;;;;;14.57;13.20;;;;;;;;;;2049711;28;20589;-64
2021/06/08 02:20:40;;;;;;;16.23;14.60;;;;;;;;;;2050323;28;20186;-66
2021/06/08 02:21:41;;;;;;;15.52;14.02;;;;;;;;;;2048536;28;20651;-66
2021/06/08 02:22:44;;;;;;;16.02;14.50;;;;;;;;;;2045424;28;20180;-63
2021/06/08 02:23:45;;;;;;;15.07;13.82;;;;;;;;;;2046443;29;20646;-66
2021/06/08 02:24:45;;;;;;;14.85;13.48;;;;;;;;;;2049838;28;20234;-65
2021/06/08 02:25:47;;;;;;;15.55;13.85;;;;;;;;;;2049761;28;20643;-65
2021/06/08 02:26:48;;;;;;;15.15;13.65;;;;;;;;;;2051224;28;20206;-66
2021/06/08 02:27:53;;;;;;;14.20;12.98;;;;;;;;;;2049811;28;20171;-65
2021/06/08 02:28:55;;;;;;;14.95;13.55;;;;;;;;;;2045105;28;20187;-66
2021/06/08 02:29:55;;;;;;;15.13;13.73;;;;;;;;;;2044275;28;20186;-66
2021/06/08 02:30:56;;;;;;;18.65;13.73;;;;;;;;;;2049293;28;20209;-67
2021/06/08 02:31:57;;;;;;;14.38;13.07;;;;;;;;;;2049057;28;20217;-66
2021/06/08 02:32:58;;;;;;;14.45;13.05;;;;;;;;;;2049132;28;20668;-66
2021/06/08 02:33:59;;;;;;;15.18;13.23;;;;;;;;;;2048514;28;20206;-65
2021/06/08 02:35:00;;;;;;;14.45;12.95;;;;;;;;;;2046650;29;20574;-63
2021/06/08 02:36:01;;;;;;;14.70;13.20;;;;;;;;;;2050362;28;20193;-66
2021/06/08 02:37:02;;;;;;;15.20;12.85;;;;;;;;;;2049216;28;20711;-67
2021/06/08 02:38:02;;;;;;;14.30;12.95;;;;;;;;;;2051365;28;20171;-66
2021/06/08 02:39:03;;;;;;;15.00;12.85;;;;;;;;;;2056782;28;20233;-65
2021/06/08 02:40:04;;;;;;;14.75;13.35;;;;;;;;;;2049290;28;20174;-65
2021/06/08 02:41:05;;;;;;;14.65;12.45;;;;;;;;;;2049387;29;20175;-65
2021/06/08 02:42:07;;;;;;;15.48;13.90;;;;;;;;;;2050684;28;20190;-65
2021/06/08 02:43:08;;;;;;;15.07;13.57;;;;;;;;;;2054420;28;20206;-65
2021/06/08 02:44:10;;;;;;;14.05;12.02;;;;;;;;;;2052002;28;20589;-65
2021/06/08 02:45:11;;;;;;;13.30;12.05;;;;;;;;;;2050389;28;20171;-66
2021/06/08 02:46:12;;;;;;;15.00;13.60;;;;;;;;;;2048566;28;20241;-64
2021/06/08 02:47:13;;;;;;;15.75;12.70;;;;;;;;;;2034682;29;20562;-65
2021/06/08 02:48:15;;;;;;;13.80;12.50;;;;;;;;;;2050233;29;20884;-66
2021/06/08 02:49:19;;;;;;;13.00;11.88;;;;;;;;;;2049197;28;20757;-65
2021/06/08 02:50:23;;;;;;;13.50;12.38;;;;;;;;;;2046903;29;20278;-65
2021/06/08 02:51:24;;;;;;;14.27;12.98;;;;;;;;;;2051461;28;20174;-65
2021/06/08 02:52:25;;;;;;;14.00;12.57;;;;;;;;;;2041689;29;20175;-65
2021/06/08 02:53:26;;;;;;;14.68;13.27;;;;;;;;;;2046042;28;20217;-64
2021/06/08 02:54:26;;;;;;;15.15;13.30;;;;;;;;;;2042473;29;20203;-65
2021/06/08 02:55:27;;;;;;;14.15;12.85;;;;;;;;;;2042773;28;20210;-64
2021/06/08 02:56:27;;;;;;;13.88;12.45;;;;;;;;;;2049378;28;20668;-65
2021/06/08 02:57:28;;;;;;;15.40;13.68;;;;;;;;;;2049404;28;20179;-63
2021/06/08 02:58:30;;;;;;;13.38;11.98;;;;;;;;;;2048854;28;20186;-63
2021/06/08 02:59:32;;;;;;;14.18;12.88;;;;;;;;;;2047709;28;20254;-65
2021/06/08 03:00:33;;;;;;;14.07;12.77;;;;;;;;;;2046902;29;20599;-66
2021/06/08 03:01:34;;;;;;;15.45;13.73;;;;;;;;;;2049536;28;20179;-64
2021/06/08 03:02:37;;;;;;;13.52;12.32;;;;;;;;;;2047993;28;20307;-65
2021/06/08 03:03:39;;;;;;;13.80;12.38;;;;;;;;;;2049479;28;20210;-64
2021/06/08 03:04:45;;;;;;;14.82;13.43;;;;;;;;;;2049930;28;20195;-64
2021/06/08 03:05:47;;;;;;;15.13;13.70;;;;;;;;;;2043762;28;20233;-64
2021/06/08 03:06:51;;;;;;;14.57;13.27;;;;;;;;;;2042154;29;20182;-63
2021/06/08 03:07:52;;;;;;;14.40;13.02;;;;;;;;;;2047040;28;20585;-65
2021/06/08 03:08:55;;;;;;;14.38;12.98;;;;;;;;;;2050213;28;20175;-64
2021/06/08 03:10:09;;;;;;;14.82;13.55;;;;;;;;;;2045914;28;20188;-65
2021/06/08 03:11:13;;;;;;;14.75;13.10;;;;;;;;;;2043835;29;20175;-64
2021/06/08 03:12:14;;;;;;;14.15;12.85;;;;;;;;;;2049404;28;20194;-63
2021/06/08 03:13:16;;;;;;;14.02;12.73;;;;;;;;;;2049071;29;20230;-63
2021/06/08 03:14:17;;;;;;;15.10;13.38;;;;;;;;;;2049232;28;20222;-64
2021/06/08 03:15:18;;;;;;;14.50;12.77;;;;;;;;;;2048551;28;20243;-63
2021/06/08 03:16:20;;;;;;;13.70;12.48;;;;;;;;;;2053453;28;20635;-64
2021/06/08 03:17:22;;;;;;;14.35;12.85;;;;;;;;;;2048567;28;20191;-64
2021/06/08 03:18:25;;;;;;;14.68;13.27;;;;;;;;;;2054473;28;20187;-64
2021/06/08 03:19:28;;;;;;;15.65;14.13;;;;;;;;;;2048433;28;20175;-64
2021/06/08 03:20:51;;;;;;;13.18;12.07;;;;;;;;;;2049036;29;20183;-66
2021/06/08 03:21:53;;;;;;;15.13;13.45;;;;;;;;;;2054151;28;20186;-65
2021/06/08 03:22:55;;;;;;;14.80;13.40;;;;;;;;;;2045771;28;20187;-64
2021/06/08 03:23:57;;;;;;;15.90;14.25;;;;;;;;;;2043209;29;20251;-64
2021/06/08 03:24:58;;;;;;;14.95;13.52;;;;;;;;;;2048615;28;20183;-65
2021/06/08 03:25:59;;;;;;;14.85;13.48;;;;;;;;;;2050575;28;20179;-64
2021/06/08 03:27:00;;;;;;;14.77;13.38;;;;;;;;;;2041476;29;20234;-65
2021/06/08 03:28:01;;;;;;;14.48;13.07;;;;;;;;;;2048559;29;20179;-65
2021/06/08 03:29:03;;;;;;;14.57;13.27;;;;;;;;;;2052107;28;20167;-65
2021/06/08 03:30:04;;;;;;;14.70;13.23;;;;;;;;;;2047653;29;20168;-66
2021/06/08 03:31:04;;;;;;;14.25;12.88;;;;;;;;;;2049143;29;20641;-66
2021/06/08 03:32:07;;;;;;;15.57;13.70;;;;;;;;;;2052602;28;20638;-66
2021/06/08 03:33:07;;;;;;;14.23;12.65;;;;;;;;;;2054180;28;20229;-65
2021/06/08 03:34:14;;;;;;;15.18;13.70;;;;;;;;;;2049116;28;20198;-66
2021/06/08 03:35:14;;;;;;;15.57;13.38;;;;;;;;;;2049512;28;20213;-65
2021/06/08 03:36:15;;;;;;;16.63;13.77;;;;;;;;;;2053076;28;20233;-66
2021/06/08 03:37:16;;;;;;;14.57;13.20;;;;;;;;;;2052333;28;20174;-65
2021/06/08 03:38:17;;;;;;;15.65;13.60;;;;;;;;;;2048856;29;20194;-65
2021/06/08 03:39:18;;;;;;;14.52;13.07;;;;;;;;;;2052581;28;20184;-66
2021/06/08 03:40:19;;;;;;;15.27;13.90;;;;;;;;;;2045368;28;20570;-64
2021/06/08 03:41:20;;;;;;;15.18;13.75;;;;;;;;;;2041921;28;20286;-66
2021/06/08 03:42:21;;;;;;;15.98;14.35;;;;;;;;;;2048479;29;20178;-66
2021/06/08 03:43:22;;;;;;;14.32;12.68;;;;;;;;;;2049062;28;20195;-64
2021/06/08 03:44:23;;;;;;;15.95;13.50;;;;;;;;;;2048791;28;20246;-65
2021/06/08 03:45:23;;;;;;;15.18;13.85;;;;;;;;;;2048703;28;20234;-65
2021/06/08 03:46:24;;;;;;;15.07;13.63;;;;;;;;;;2049154;28;20222;-66
2021/06/08 03:47:24;;;;;;;14.32;12.93;;;;;;;;;;2049434;28;20171;-65
2021/06/08 03:48:25;;;;;;;15.25;13.85;;;;;;;;;;2054472;28;20163;-65
2021/06/08 03:49:25;;;;;;;15.45;13.88;;;;;;;;;;2052877;28;20700;-66
2021/06/08 03:50:25;;;;;;;13.80;12.50;;;;;;;;;;2044459;29;20175;-65
2021/06/08 03:51:30;;;;;;;14.40;13.00;;;;;;;;;;2048281;28;20623;-66
2021/06/08 03:52:30;;;;;;;15.77;14.07;;;;;;;;;;2048330;28;20761;-65
2021/06/08 03:53:30;;;;;;;16.05;13.52;;;;;;;;;;2044395;28;20240;-65
2021/06/08 03:54:31;;;;;;;14.52;13.13;;;;;;;;;;2048708;28;20234;-66
2021/06/08 03:55:31;;;;;;;15.75;13.10;;;;;;;;;;2051669;28;20236;-66
2021/06/08 03:56:32;;;;;;;15.52;13.70;;;;;;;;;;2052823;28;20238;-65
2021/06/08 03:57:38;;;;;;;15.77;14.27;;;;;;;;;;2049030;28;20189;-65
2021/06/08 03:58:40;;;;;;;13.75;12.55;;;;;;;;;;2049427;28;20620;-65
2021/06/08 03:59:40;;;;;;;16.42;13.85;;;;;;;;;;2045807;29;20759;-66
2021/06/08 04:00:41;;;;;;;14.50;13.23;;;;;;;;;;2037547;29;20188;-66
2021/06/08 04:01:42;;;;;;;14.18;12.88;;;;;;;;;;2046576;29;20594;-66
2021/06/08 04:02:42;;;;;;;14.77;13.48;;;;;;;;;;2041021;29;20183;-66
2021/06/08 04:03:42;;;;;;;14.85;13.48;;;;;;;;;;2040569;29;20677;-66
2021/06/08 04:04:43;;;;;;;15.98;14.13;;;;;;;;;;2047652;28;20214;-66
2021/06/08 04:05:46;;;;;;;15.38;13.98;;;;;;;;;;2049102;29;20869;-65
2021/06/08 04:06:47;;;;;;;14.40;13.00;;;;;;;;;;2048706;29;20246;-65
2021/06/08 04:07:47;;;;;;;15.15;13.75;;;;;;;;;;2048517;29;20182;-59
2021/06/08 04:08:48;;;;;;;14.77;13.50;;;;;;;;;;2048395;28;20238;-64
2021/06/08 04:09:49;;;;;;;14.18;12.82;;;;;;;;;;2048511;29;20255;-65
2021/06/08 04:10:50;;;;;;;14.77;13.48;;;;;;;;;;2047480;28;20183;-65
2021/06/08 04:11:51;;;;;;;15.07;12.93;;;;;;;;;;2046402;28;20178;-64
2021/06/08 04:12:58;;;;;;;15.13;13.55;;;;;;;;;;2048933;29;20186;-65
2021/06/08 04:13:58;;;;;;;14.60;13.07;;;;;;;;;;2048400;29;20174;-64
2021/06/08 04:15:00;;;;;;;15.93;13.38;;;;;;;;;;2049637;28;20179;-66
2021/06/08 04:16:00;;;;;;;15.40;14.00;;;;;;;;;;2048382;28;20190;-64
2021/06/08 04:17:01;;;;;;;15.63;14.13;;;;;;;;;;2049576;28;20647;-65
2021/06/08 04:18:02;;;;;;;14.40;13.02;;;;;;;;;;2049402;28;20183;-65
2021/06/08 04:19:07;;;;;;;14.52;13.13;;;;;;;;;;2049575;28;20655;-65
2021/06/08 04:20:08;;;;;;;15.02;13.63;;;;;;;;;;2045690;28;20254;-65
2021/06/08 04:21:08;;;;;;;14.40;12.60;;;;;;;;;;2046788;28;20182;-65
2021/06/08 04:22:09;;;;;;;14.55;13.07;;;;;;;;;;2049230;29;20162;-65
2021/06/08 04:23:09;;;;;;;14.32;12.95;;;;;;;;;;2049272;28;20629;-64
2021/06/08 04:24:10;;;;;;;14.05;12.75;;;;;;;;;;2048231;28;20194;-65
2021/06/08 04:25:10;;;;;;;13.95;12.52;;;;;;;;;;2045171;29;20195;-65
2021/06/08 04:26:11;;;;;;;14.63;13.05;;;;;;;;;;2044679;28;20179;-65
2021/06/08 04:27:11;;;;;;;14.02;12.65;;;;;;;;;;2048379;28;20701;-65
2021/06/08 04:28:11;;;;;;;15.07;13.65;;;;;;;;;;2049190;29;20553;-64
2021/06/08 04:29:11;;;;;;;14.35;12.95;;;;;;;;;;2048824;29;20175;-64
2021/06/08 04:30:13;;;;;;;13.90;12.60;;;;;;;;;;2047113;29;20174;-64
2021/06/08 04:31:13;;;;;;;13.77;12.57;;;;;;;;;;2045983;28;20281;-64
2021/06/08 04:32:13;;;;;;;14.38;12.82;;;;;;;;;;2048198;28;20705;-64
2021/06/08 04:33:14;;;;;;;14.80;13.25;;;;;;;;;;2042623;29;20195;-64
2021/06/08 04:34:18;;;;;;;15.07;13.55;;;;;;;;;;2048344;28;20301;-64
2021/06/08 04:35:18;;;;;;;14.98;13.60;;;;;;;;;;2048728;28;20167;-64
2021/06/08 04:36:19;;;;;;;15.10;13.73;;;;;;;;;;2048590;28;20159;-65
2021/06/08 04:37:19;;;;;;;15.25;13.75;;;;;;;;;;2050998;28;20229;-65
2021/06/08 04:38:20;;;;;;;17.13;14.48;;;;;;;;;;2049033;28;20209;-64
2021/06/08 04:39:20;;;;;;;15.48;13.95;;;;;;;;;;2048606;28;20208;-65
2021/06/08 04:40:21;;;;;;;14.98;13.65;;;;;;;;;;2048564;29;20233;-64
2021/06/08 04:41:21;;;;;;;15.35;13.85;;;;;;;;;;2052276;28;20179;-65
2021/06/08 04:42:22;;;;;;;15.40;13.80;;;;;;;;;;2048660;28;20190;-64
2021/06/08 04:43:23;;;;;;;16.17;14.40;;;;;;;;;;2047655;29;20199;-64
2021/06/08 04:44:23;;;;;;;15.20;13.75;;;;;;;;;;2048163;28;20191;-65
2021/06/08 04:45:24;;;;;;;15.00;13.57;;;;;;;;;;2047491;29;20606;-63
2021/06/08 04:46:24;;;;;;;14.52;13.00;;;;;;;;;;2048155;28;20283;-65
2021/06/08 04:47:24;;;;;;;15.25;13.35;;;;;;;;;;2047873;28;20191;-65
2021/06/08 04:48:25;;;;;;;13.32;12.18;;;;;;;;;;2045614;29;20256;-64
2021/06/08 04:49:25;;;;;;;14.65;13.25;;;;;;;;;;2052636;28;20174;-63
2021/06/08 04:50:26;;;;;;;14.20;12.90;;;;;;;;;;2051098;28;20175;-66
2021/06/08 04:51:26;;;;;;;15.77;13.60;;;;;;;;;;2053225;28;20178;-65
2021/06/08 04:52:27;;;;;;;14.52;13.13;;;;;;;;;;2037173;29;20172;-65
2021/06/08 04:53:27;;;;;;;16.52;13.50;;;;;;;;;;2039682;29;20250;-64
2021/06/08 04:54:27;;;;;;;14.98;12.80;;;;;;;;;;2040321;29;20232;-65
2021/06/08 04:55:28;;;;;;;14.15;12.85;;;;;;;;;;2032339;29;20228;-65
2021/06/08 04:56:28;;;;;;;15.18;13.90;;;;;;;;;;2047213;29;20205;-63
2021/06/08 04:57:28;;;;;;;15.30;13.90;;;;;;;;;;2046211;28;20194;-65
2021/06/08 04:58:29;;;;;;;15.30;13.50;;;;;;;;;;2047252;28;20179;-67
2021/06/08 04:59:29;;;;;;;15.85;14.15;;;;;;;;;;2048151;28;20707;-65
2021/06/08 05:00:35;;;;;;;16.05;14.32;;;;;;;;;;2045753;28;20194;-65
2021/06/08 05:01:37;;;;;;;16.02;13.30;;;;;;;;;;2041297;29;20518;-64
2021/06/08 05:02:53;;;;;;;16.50;13.52;;;;;;;;;;2040193;29;20718;-66
2021/06/08 05:04:02;;;;;;;15.73;14.23;;;;;;;;;;2045973;29;20206;-64
2021/06/08 05:05:29;;;;;;;15.10;13.57;;;;;;;;;;2044846;29;20203;-65
2021/06/08 05:06:31;;;;;;;15.13;13.52;;;;;;;;;;2040491;28;20199;-62
2021/06/08 05:07:39;;;;;;;14.85;13.23;;;;;;;;;;2041731;28;20305;-59
2021/06/08 05:08:42;;;;;;;17.02;14.13;;;;;;;;;;2048115;28;20262;-57
2021/06/08 05:09:45;;;;;;;14.85;13.27;;;;;;;;;;2045405;28;20238;-57
2021/06/08 05:10:59;;;;;;;15.02;13.57;;;;;;;;;;2048316;28;20221;-57
2021/06/08 05:12:00;;;;;;;14.63;13.18;;;;;;;;;;2048295;28;20198;-55
2021/06/08 05:13:01;;;;;;;15.05;12.85;;;;;;;;;;2044521;28;20171;-58
2021/06/08 05:14:04;;;;;;;15.57;14.00;;;;;;;;;;2048462;28;20179;-58
2021/06/08 05:15:04;;;;;;;16.33;14.38;;;;;;;;;;2049873;28;20175;-56
2021/06/08 05:16:05;;;;;;;14.45;13.05;;;;;;;;;;2054435;28;20214;-56
2021/06/08 05:17:06;;;;;;;16.75;15.02;;;;;;;;;;2054705;28;20193;-53
2021/06/08 05:18:07;;;;;;;16.33;13.90;;;;;;;;;;2049825;29;20191;-55
2021/06/08 05:19:08;;;;;;;15.77;14.18;;;;;;;;;;2054106;29;20198;-56
2021/06/08 05:20:09;;;;;;;17.60;14.48;;;;;;;;;;2048935;29;20167;-53
2021/06/08 05:21:14;;;;;;;15.57;14.18;;;;;;;;;;2051523;29;20238;-55
2021/06/08 05:22:18;;;;;;;15.43;14.10;;;;;;;;;;2048567;29;20206;-58
2021/06/08 05:23:18;;;;;;;15.48;13.88;;;;;;;;;;2049650;28;20199;-63
2021/06/08 05:24:19;;;;;;;15.80;14.13;;;;;;;;;;2047248;29;20193;-62
2021/06/08 05:25:20;;;;;;;14.77;13.40;;;;;;;;;;2043306;29;20183;-60
2021/06/08 05:26:21;;;;;;;16.58;15.07;;;;;;;;;;2048171;28;20254;-59
2021/06/08 05:27:22;;;;;;;16.42;14.80;;;;;;;;;;2048973;28;20194;-61
2021/06/08 05:28:22;;;;;;;16.05;14.50;;;;;;;;;;2048092;29;20178;-60
2021/06/08 05:29:23;;;;;;;17.73;14.85;;;;;;;;;;2045755;29;20182;-59
2021/06/08 05:30:23;;;;;;;15.55;14.05;;;;;;;;;;2048866;28;20179;-57
2021/06/08 05:31:23;;;;;;;15.88;14.18;;;;;;;;;;2048682;28;20270;-59
2021/06/08 05:32:24;;;;;;;15.35;13.88;;;;;;;;;;2048171;28;20549;-57
2021/06/08 05:33:24;;;;;;;15.52;13.95;;;;;;;;;;2047871;28;20582;-51
2021/06/08 05:34:26;;;;;;;15.60;14.20;;;;;;;;;;2048263;28;20202;-55
2021/06/08 05:35:27;;;;;;;15.90;14.38;;;;;;;;;;2048834;28;20183;-58
2021/06/08 05:36:37;;;;;;;16.02;14.52;;;;;;;;;;2045578;28;20686;-54
2021/06/08 05:37:41;;;;;;;16.80;15.10;;;;;;;;;;2048926;28;20576;-59
2021/06/08 05:38:46;;;;;;;16.90;15.13;;;;;;;;;;2048419;28;20274;-57
2021/06/08 05:39:46;;;;;;;15.77;14.32;;;;;;;;;;2047892;29;20648;-55
2021/06/08 05:40:47;;;;;;;17.10;15.07;;;;;;;;;;2049532;29;20198;-55
2021/06/08 05:41:47;;;;;;;17.48;14.68;;;;;;;;;;2047873;28;20194;-55
2021/06/08 05:42:48;;;;;;;16.00;14.50;;;;;;;;;;2047469;29;20179;-55
2021/06/08 05:43:48;;;;;;;16.13;14.45;;;;;;;;;;2047554;29;20223;-53
2021/06/08 05:44:51;;;;;;;16.27;14.63;;;;;;;;;;2049833;28;20234;-53
2021/06/08 05:45:53;;;;;;;15.93;14.25;;;;;;;;;;2046772;28;20186;-59
2021/06/08 05:46:53;;;;;;;15.82;14.27;;;;;;;;;;2048744;29;20193;-56
2021/06/08 05:47:53;;;;;;;15.80;14.10;;;;;;;;;;2046389;28;20231;-55
2021/06/08 05:48:54;;;;;;;16.67;15.18;;;;;;;;;;2043667;29;20176;-56
2021/06/08 05:49:54;;;;;;;18.98;15.68;;;;;;;;;;2049415;29;20310;-60
2021/06/08 05:50:58;;;;;;;17.10;15.32;;;;;;;;;;2048718;29;20190;-52
2021/06/08 05:51:59;;;;;;;17.08;15.38;;;;;;;;;;2044316;29;20179;-54
2021/06/08 05:53:00;;;;;;;17.05;15.35;;;;;;;;;;2041975;29;20175;-59
2021/06/08 05:54:01;;;;;;;16.17;14.48;;;;;;;;;;2049588;28;20266;-56
2021/06/08 05:55:02;;;;;;;16.70;15.00;;;;;;;;;;2044682;28;20214;-56
2021/06/08 05:56:02;;;;;;;18.50;15.77;;;;;;;;;;2049949;28;20171;-53
2021/06/08 05:57:03;;;;;;;16.83;15.05;;;;;;;;;;2044160;28;20199;-58
2021/06/08 05:58:03;;;;;;;17.23;15.43;;;;;;;;;;2042549;29;20806;-53
2021/06/08 05:59:04;;;;;;;16.23;14.65;;;;;;;;;;2049344;28;20640;-58
2021/06/08 06:00:05;;;;;;;17.52;15.90;;;;;;;;;;2047861;29;20171;-56